Time;durP1;ratioP1;P1;durP2;ratioP2;P2;SDS_P1;SDS_P2;PMS_P1;PMS_P2;Temp;Humidity;BMP_temperature;BMP_pressure;BME280_temperature;BME280_humidity;BME280_pressure;Samples;Min_cycle;Max_cycle;Signal;HPM_P1;HPM_P2
2021/08/29 00:02:19;;;;;;;22.90;10.68;;;;;;;12.54;98.83;98713.84;5044403;28;20017;-68
2021/08/29 00:04:44;;;;;;;21.33;10.15;;;;;;;12.58;99.41;98710.22;5044238;28;20014;-68
2021/08/29 00:07:10;;;;;;;19.80;9.77;;;;;;;12.68;99.30;98716.13;5044444;28;20092;-68
2021/08/29 00:09:35;;;;;;;20.38;9.98;;;;;;;12.72;98.75;98708.06;5044313;28;20017;-68
2021/08/29 00:12:01;;;;;;;22.75;10.05;;;;;;;12.76;98.78;98709.72;5043049;28;20039;-68
2021/08/29 00:14:26;;;;;;;22.77;10.13;;;;;;;12.73;98.83;98707.19;5044184;28;20032;-68
2021/08/29 00:16:51;;;;;;;16.50;7.60;;;;;;;12.68;99.27;98705.56;5044069;28;20017;-68
2021/08/29 00:19:17;;;;;;;15.90;8.32;;;;;;;12.75;99.09;98705.34;5044144;28;20021;-68
2021/08/29 00:21:43;;;;;;;16.55;6.45;;;;;;;12.79;99.04;98698.22;5043917;28;20017;-68
2021/08/29 00:24:08;;;;;;;21.15;7.07;;;;;;;12.85;99.15;98700.69;5044044;28;20009;-68
2021/08/29 00:26:33;;;;;;;20.20;8.93;;;;;;;12.92;99.14;98703.09;5043931;28;20071;-68
2021/08/29 00:28:59;;;;;;;18.15;8.82;;;;;;;12.97;99.40;98702.97;5044151;28;20017;-68
2021/08/29 00:31:24;;;;;;;18.40;8.80;;;;;;;12.95;99.43;98700.38;5043794;28;20068;-68
2021/08/29 00:33:50;;;;;;;19.80;8.40;;;;;;;12.96;99.78;98691.56;5043886;28;20017;-68
2021/08/29 00:36:15;;;;;;;22.08;9.38;;;;;;;13.01;99.58;98689.69;5044151;28;20049;-68
2021/08/29 00:38:40;;;;;;;18.77;9.00;;;;;;;13.05;99.63;98693.13;5043947;28;20385;-68
2021/08/29 00:41:08;;;;;;;23.70;10.32;;;;;;;12.93;99.59;98702.22;5043841;28;20028;-68
2021/08/29 00:43:33;;;;;;;18.30;8.63;;;;;;;12.97;99.30;98695.06;5040354;28;20037;-68
2021/08/29 00:45:59;;;;;;;26.70;11.18;;;;;;;12.94;99.33;98693.38;5040473;28;20190;-68
2021/08/29 00:48:24;;;;;;;22.73;10.98;;;;;;;12.92;99.32;98694.34;5044089;28;20041;-68
2021/08/29 00:50:50;;;;;;;22.58;10.50;;;;;;;12.87;99.65;98681.25;5043958;28;20387;-68
2021/08/29 00:53:19;;;;;;;16.50;9.73;;;;;;;12.87;100.00;98690.94;5039072;28;20190;-68
2021/08/29 00:55:45;;;;;;;15.30;8.60;;;;;;;12.98;100.00;98683.59;5041956;28;20049;-68
2021/08/29 00:58:11;;;;;;;15.45;7.93;;;;;;;12.91;100.00;98677.59;5043653;28;20052;-68
2021/08/29 01:00:42;;;;;;;19.30;7.63;;;;;;;12.91;100.00;98685.53;5043528;28;20312;-68
2021/08/29 01:03:16;;;;;;;17.00;9.32;;;;;;;12.96;100.00;98677.47;5043238;28;20014;-68
2021/08/29 01:05:51;;;;;;;19.55;7.50;;;;;;;13.07;100.00;98682.50;5045969;28;20309;-68
2021/08/29 01:08:17;;;;;;;15.45;7.97;;;;;;;13.07;100.00;98677.22;5047623;28;20021;-68
2021/08/29 01:10:55;;;;;;;15.43;7.47;;;;;;;13.06;100.00;98667.56;5047003;28;20044;-68
2021/08/29 01:13:26;;;;;;;15.93;8.48;;;;;;;13.09;100.00;98670.97;5037340;28;20021;-68
2021/08/29 01:15:55;;;;;;;15.85;7.13;;;;;;;13.09;100.00;98675.41;5047387;28;20023;-68
2021/08/29 01:18:24;;;;;;;19.40;7.75;;;;;;;13.11;100.00;98673.56;5036344;28;20311;-68
2021/08/29 01:21:01;;;;;;;15.32;7.50;;;;;;;13.18;100.00;98669.84;5047214;28;20331;-68
2021/08/29 01:23:29;;;;;;;16.60;7.47;;;;;;;13.18;100.00;98664.53;5036643;28;20044;-68
2021/08/29 01:26:18;;;;;;;15.73;7.50;;;;;;;13.29;100.00;98667.75;5047029;28;20036;-68
2021/08/29 01:28:56;;;;;;;17.20;9.05;;;;;;;13.35;100.00;98657.84;5038110;28;20350;-68
2021/08/29 01:31:24;;;;;;;13.13;7.03;;;;;;;13.37;100.00;98663.09;5047064;28;20029;-68
2021/08/29 01:33:51;;;;;;;14.00;7.90;;;;;;;13.36;100.00;98658.72;5037863;28;20021;-68
2021/08/29 01:36:18;;;;;;;13.18;7.10;;;;;;;13.33;100.00;98658.81;5047021;28;20021;-68
2021/08/29 01:38:46;;;;;;;19.25;7.30;;;;;;;13.32;100.00;98657.94;5046782;28;20021;-68
2021/08/29 01:41:13;;;;;;;14.10;8.23;;;;;;;13.27;100.00;98661.63;5046622;28;20029;-68
2021/08/29 01:43:40;;;;;;;14.35;8.70;;;;;;;13.30;100.00;98669.47;5047015;28;20017;-68
2021/08/29 01:46:06;;;;;;;16.63;8.40;;;;;;;13.34;100.00;98655.25;5046562;28;20025;-68
2021/08/29 01:48:32;;;;;;;15.63;7.53;;;;;;;13.39;100.00;98666.56;5046583;28;20021;-68
2021/08/29 01:50:57;;;;;;;17.88;8.82;;;;;;;13.36;100.00;98664.91;5046548;28;20027;-68
2021/08/29 01:53:23;;;;;;;20.23;8.27;;;;;;;13.41;100.00;98662.97;5046545;28;20021;-68
2021/08/29 01:55:49;;;;;;;13.77;7.50;;;;;;;13.46;100.00;98660.19;5046644;28;20033;-68
2021/08/29 01:58:16;;;;;;;16.38;8.18;;;;;;;13.47;100.00;98661.91;5046473;28;20201;-68
2021/08/29 02:00:56;;;;;;;14.98;7.70;;;;;;;13.53;100.00;98667.00;5046481;28;20316;-68
2021/08/29 02:03:22;;;;;;;20.08;7.47;;;;;;;13.55;100.00;98666.06;5046608;28;20017;-68
2021/08/29 02:05:53;;;;;;;10.48;6.55;;;;;;;13.57;100.00;98658.94;5046402;28;20032;-68
2021/08/29 02:08:20;;;;;;;18.85;8.40;;;;;;;13.59;100.00;98661.53;5028421;28;20267;-68
2021/08/29 02:10:49;;;;;;;16.13;7.82;;;;;;;13.60;100.00;98660.63;5045860;28;20041;-68
2021/08/29 02:13:15;;;;;;;11.20;6.32;;;;;;;13.58;100.00;98665.09;5046003;28;20060;-68
2021/08/29 02:15:45;;;;;;;17.33;8.23;;;;;;;13.62;100.00;98666.72;5045512;28;20025;-68
2021/08/29 02:18:13;;;;;;;18.73;10.18;;;;;;;13.66;100.00;98668.34;5045441;28;20025;-67
2021/08/29 02:20:39;;;;;;;20.48;10.18;;;;;;;13.71;100.00;98666.44;5044446;28;20094;-67
2021/08/29 02:23:06;;;;;;;17.85;10.13;;;;;;;13.70;100.00;98664.72;5045838;28;20018;-67
2021/08/29 02:25:32;;;;;;;19.25;9.50;;;;;;;13.77;100.00;98668.91;5045747;28;20013;-67
2021/08/29 02:27:58;;;;;;;18.10;9.25;;;;;;;13.82;100.00;98665.19;5045693;28;20033;-67
2021/08/29 02:30:24;;;;;;;14.02;8.05;;;;;;;13.82;100.00;98674.91;5045922;28;20304;-67
2021/08/29 02:32:53;;;;;;;13.98;7.93;;;;;;;13.81;100.00;98673.19;5045652;28;20029;-67
2021/08/29 02:35:20;;;;;;;16.98;8.30;;;;;;;13.79;100.00;98664.44;5045404;28;20328;-67
2021/08/29 02:37:48;;;;;;;14.80;8.52;;;;;;;13.81;100.00;98668.75;5045490;28;20316;-67
2021/08/29 02:40:15;;;;;;;15.10;8.77;;;;;;;13.81;100.00;98665.25;5045376;28;20021;-67
2021/08/29 02:42:40;;;;;;;16.15;9.52;;;;;;;13.81;100.00;98663.47;5045509;28;20072;-67
2021/08/29 02:45:09;;;;;;;15.32;8.93;;;;;;;13.85;100.00;98664.22;5027665;28;20017;-67
2021/08/29 02:47:35;;;;;;;16.42;9.70;;;;;;;13.84;100.00;98668.66;5045386;28;20071;-67
2021/08/29 02:50:02;;;;;;;22.85;9.40;;;;;;;13.84;100.00;98667.78;5045336;28;20045;-67
2021/08/29 02:52:28;;;;;;;14.48;8.27;;;;;;;13.83;100.00;98658.97;5045682;28;20021;-67
2021/08/29 02:54:54;;;;;;;17.27;9.60;;;;;;;13.86;100.00;98663.31;5044993;28;20022;-67
2021/08/29 02:57:21;;;;;;;28.05;10.32;;;;;;;13.88;100.00;98665.00;5045033;28;20029;-67
2021/08/29 02:59:47;;;;;;;17.08;9.20;;;;;;;13.90;100.00;98668.47;5045195;28;20248;-67
2021/08/29 03:02:13;;;;;;;16.73;9.45;;;;;;;13.91;100.00;98666.69;5044825;28;20034;-67
2021/08/29 03:04:39;;;;;;;22.38;9.95;;;;;;;13.91;100.00;98664.03;5045120;28;20273;-67
2021/08/29 03:07:05;;;;;;;17.90;10.57;;;;;;;13.93;100.00;98656.91;5044827;28;20029;-67
2021/08/29 03:09:34;;;;;;;20.52;11.70;;;;;;;13.97;100.00;98659.41;5041361;28;20021;-67
2021/08/29 03:12:07;;;;;;;24.98;11.82;;;;;;;14.01;100.00;98658.41;5041355;28;20051;-67
2021/08/29 03:14:34;;;;;;;17.63;10.23;;;;;;;14.01;100.00;98652.22;5044700;28;20033;-67
2021/08/29 03:17:00;;;;;;;21.33;11.18;;;;;;;14.00;100.00;98653.16;5044897;28;20070;-67
2021/08/29 03:19:26;;;;;;;19.88;11.35;;;;;;;14.05;100.00;98653.88;5044669;28;20092;-67
2021/08/29 03:21:52;;;;;;;22.42;11.95;;;;;;;14.04;100.00;98653.00;5044705;28;20025;-67
2021/08/29 03:24:18;;;;;;;18.83;11.40;;;;;;;14.06;100.00;98647.66;5044402;28;20275;-67
2021/08/29 03:26:43;;;;;;;21.50;11.95;;;;;;;14.05;100.00;98641.50;5044622;28;20021;-67
2021/08/29 03:29:10;;;;;;;19.52;11.88;;;;;;;14.07;100.00;98638.78;5044272;28;20049;-67
2021/08/29 03:31:35;;;;;;;23.67;11.55;;;;;;;14.07;100.00;98644.09;5044602;28;20025;-67
2021/08/29 03:34:02;;;;;;;18.17;11.10;;;;;;;14.08;100.00;98643.19;5044325;28;20028;-67
2021/08/29 03:36:30;;;;;;;20.17;11.10;;;;;;;14.07;100.00;98639.66;5026670;28;20025;-67
2021/08/29 03:38:59;;;;;;;23.52;12.23;;;;;;;14.07;100.00;98638.78;5044489;28;20021;-67
2021/08/29 03:41:27;;;;;;;23.25;10.82;;;;;;;14.08;100.00;98640.56;5044280;28;20017;-67
2021/08/29 03:43:53;;;;;;;21.17;11.88;;;;;;;14.09;100.00;98629.91;5044251;28;20036;-67
2021/08/29 03:46:19;;;;;;;17.45;9.88;;;;;;;14.07;100.00;98622.91;5044439;28;20021;-67
2021/08/29 03:48:44;;;;;;;22.73;11.73;;;;;;;14.01;100.00;98624.00;5044063;28;20088;-67
2021/08/29 03:51:14;;;;;;;18.27;10.85;;;;;;;13.94;100.00;98625.13;5044226;28;20025;-67
2021/08/29 03:53:40;;;;;;;16.45;9.90;;;;;;;13.88;100.00;98627.09;5044008;28;20036;-67
2021/08/29 03:56:06;;;;;;;21.10;10.60;;;;;;;13.88;100.00;98635.03;5043858;28;20052;-67
2021/08/29 03:58:39;;;;;;;19.45;11.02;;;;;;;13.81;100.00;98636.13;5043853;28;20024;-67
2021/08/29 04:01:05;;;;;;;21.50;11.45;;;;;;;13.80;100.00;98642.34;5044000;28;20024;-67
2021/08/29 04:03:30;;;;;;;27.35;12.32;;;;;;;13.84;100.00;98636.03;5043969;28;20204;-67
2021/08/29 04:06:01;;;;;;;27.63;14.10;;;;;;;13.83;100.00;98635.16;5043980;28;20378;-67
2021/08/29 04:08:30;;;;;;;32.40;13.25;;;;;;;13.80;100.00;98635.28;5043889;28;20017;-67
2021/08/29 04:10:58;;;;;;;23.50;12.50;;;;;;;13.78;100.00;98641.53;5033435;28;20049;-67
2021/08/29 04:13:26;;;;;;;22.15;12.30;;;;;;;13.83;100.00;98636.97;5043838;28;20017;-67
2021/08/29 04:15:52;;;;;;;26.50;12.82;;;;;;;13.87;100.00;98643.88;5042698;28;20040;-67
2021/08/29 04:18:20;;;;;;;22.55;12.82;;;;;;;13.88;100.00;98635.03;5043713;28;20014;-67
2021/08/29 04:20:45;;;;;;;27.10;13.35;;;;;;;13.92;100.00;98634.88;5043640;28;20087;-67
2021/08/29 04:23:11;;;;;;;21.58;12.43;;;;;;;13.95;100.00;98644.53;5043804;28;20028;-68
2021/08/29 04:25:37;;;;;;;30.00;11.80;;;;;;;13.94;100.00;98643.63;5043423;28;20017;-68
2021/08/29 04:28:02;;;;;;;23.50;11.70;;;;;;;13.95;100.00;98649.81;5043759;28;20335;-68
2021/08/29 04:30:28;;;;;;;22.20;12.15;;;;;;;13.95;100.00;98647.16;5043641;28;20014;-68
2021/08/29 04:32:53;;;;;;;25.10;13.07;;;;;;;13.98;100.00;98655.00;5043597;28;20358;-68
2021/08/29 04:35:19;;;;;;;21.40;12.48;;;;;;;13.97;100.00;98647.97;5043312;28;20265;-67
2021/08/29 04:37:45;;;;;;;24.23;12.98;;;;;;;14.01;100.00;98649.56;5043611;28;20048;-67
2021/08/29 04:40:10;;;;;;;22.70;12.80;;;;;;;14.03;100.00;98653.06;5042703;28;20056;-67
2021/08/29 04:42:36;;;;;;;23.45;12.55;;;;;;;14.07;100.00;98649.38;5042348;28;20017;-67
2021/08/29 04:45:01;;;;;;;22.55;13.32;;;;;;;14.07;100.00;98654.69;5043569;28;20075;-67
2021/08/29 04:47:27;;;;;;;27.30;13.35;;;;;;;14.08;100.00;98641.41;5043361;28;20356;-67
2021/08/29 04:49:52;;;;;;;23.08;13.05;;;;;;;14.10;100.00;98647.50;5043415;28;20362;-67
2021/08/29 04:52:17;;;;;;;31.25;15.50;;;;;;;14.11;100.00;98648.38;5043249;28;20093;-67
2021/08/29 04:54:43;;;;;;;24.17;13.45;;;;;;;14.11;100.00;98645.75;5043405;28;20021;-67
2021/08/29 04:57:08;;;;;;;26.58;15.05;;;;;;;14.12;100.00;98651.00;5043368;28;20099;-67
2021/08/29 04:59:33;;;;;;;30.50;15.52;;;;;;;14.10;100.00;98654.56;5043281;28;20033;-67
2021/08/29 05:01:59;;;;;;;28.45;15.45;;;;;;;14.10;100.00;98651.94;5043219;28;20327;-67
2021/08/29 05:04:24;;;;;;;35.58;18.08;;;;;;;14.10;100.00;98649.28;5043130;28;20033;-67
2021/08/29 05:06:50;;;;;;;34.15;18.55;;;;;;;14.08;100.00;98648.50;5043318;28;20088;-67
2021/08/29 05:09:15;;;;;;;36.55;17.52;;;;;;;14.08;100.00;98651.13;5043173;28;20025;-67
2021/08/29 05:11:40;;;;;;;38.05;18.10;;;;;;;14.09;100.00;98647.56;5042908;28;20041;-67
2021/08/29 05:14:06;;;;;;;34.45;17.40;;;;;;;14.04;100.00;98639.78;5043269;28;20325;-67
2021/08/29 05:16:31;;;;;;;46.85;19.70;;;;;;;14.03;100.00;98645.13;5043033;28;20375;-67
2021/08/29 05:18:57;;;;;;;38.30;19.70;;;;;;;14.02;100.00;98643.41;5043136;28;20037;-67
2021/08/29 05:21:22;;;;;;;37.85;20.55;;;;;;;14.02;100.00;98646.88;5043081;28;20024;-67
2021/08/29 05:23:48;;;;;;;38.20;18.83;;;;;;;13.97;100.00;98640.91;5043174;28;20308;-67
2021/08/29 05:26:13;;;;;;;43.45;20.88;;;;;;;13.96;100.00;98646.22;5043134;28;20060;-67
2021/08/29 05:28:38;;;;;;;44.53;20.65;;;;;;;13.96;100.00;98635.66;5042996;28;20216;-67
2021/08/29 05:31:04;;;;;;;49.00;23.20;;;;;;;13.97;100.00;98647.97;5041834;28;20029;-68
2021/08/29 05:33:29;;;;;;;48.00;21.10;;;;;;;13.94;100.00;98637.47;5042049;28;20020;-68
2021/08/29 05:35:54;;;;;;;48.75;22.92;;;;;;;13.93;100.00;98644.56;5041890;28;20094;-67
2021/08/29 05:38:20;;;;;;;48.08;21.48;;;;;;;13.93;100.00;98646.34;5042008;28;20020;-67
2021/08/29 05:40:45;;;;;;;46.95;21.58;;;;;;;13.97;100.00;98647.97;5041768;28;20025;-67
2021/08/29 05:43:11;;;;;;;49.15;21.45;;;;;;;13.97;100.00;98642.66;5042050;28;20276;-67
2021/08/29 05:45:36;;;;;;;46.70;22.20;;;;;;;13.97;100.00;98647.97;5041427;28;20017;-67
2021/08/29 05:48:01;;;;;;;47.78;21.60;;;;;;;13.96;100.00;98646.22;5041952;28;20044;-67
2021/08/29 05:50:27;;;;;;;44.88;21.65;;;;;;;13.97;100.00;98645.31;5042146;28;20045;-67
2021/08/29 05:52:52;;;;;;;42.90;20.25;;;;;;;14.03;100.00;98642.47;5045482;28;20300;-67
2021/08/29 05:55:18;;;;;;;49.13;22.05;;;;;;;14.07;100.00;98649.38;5045433;28;20088;-67
2021/08/29 05:57:43;;;;;;;46.67;20.52;;;;;;;14.09;100.00;98647.56;5045059;28;20275;-67
2021/08/29 06:00:09;;;;;;;48.45;23.75;;;;;;;14.11;100.00;98651.03;5045417;28;20067;-67
2021/08/29 06:02:35;;;;;;;46.30;22.20;;;;;;;14.13;100.00;98657.13;5035239;28;20029;-67
2021/08/29 06:05:00;;;;;;;44.63;20.27;;;;;;;14.18;100.00;98647.25;5045428;28;20032;-68
2021/08/29 06:07:26;;;;;;;40.40;20.15;;;;;;;14.21;100.00;98648.00;5027664;28;20017;-67
2021/08/29 06:09:51;;;;;;;41.00;20.08;;;;;;;14.24;100.00;98653.22;5044738;28;20017;-67
2021/08/29 06:12:17;;;;;;;43.60;20.30;;;;;;;14.26;100.00;98645.25;5045206;28;20017;-67
2021/08/29 06:14:42;;;;;;;42.70;20.30;;;;;;;14.27;100.00;98637.25;5044809;28;20049;-67
2021/08/29 06:17:07;;;;;;;43.70;20.73;;;;;;;14.25;100.00;98632.94;5045099;28;20019;-67
2021/08/29 06:19:33;;;;;;;47.17;20.42;;;;;;;14.26;100.00;98639.94;5045114;28;20021;-67
2021/08/29 06:21:58;;;;;;;39.67;18.63;;;;;;;14.35;100.00;98644.94;5044514;28;20032;-67
2021/08/29 06:24:24;;;;;;;39.97;19.80;;;;;;;14.33;100.00;98646.78;5044770;28;20114;-67
2021/08/29 06:26:49;;;;;;;45.83;20.70;;;;;;;14.30;100.00;98636.31;5044989;28;20028;-67
2021/08/29 06:29:16;;;;;;;44.22;19.20;;;;;;;14.62;100.00;98641.34;5027441;28;20021;-68
2021/08/29 06:31:42;;;;;;;36.20;16.88;;;;;;;14.82;99.96;98642.38;5044776;28;20075;-67
2021/08/29 06:34:07;;;;;;;39.47;18.83;;;;;;;14.93;99.11;98634.88;5044794;28;20021;-67
2021/08/29 06:36:33;;;;;;;38.63;17.88;;;;;;;14.95;98.30;98642.78;5044135;28;20056;-67
2021/08/29 06:38:58;;;;;;;45.40;17.35;;;;;;;14.71;98.62;98636.56;5044917;28;20013;-67
2021/08/29 06:41:25;;;;;;;37.15;16.70;;;;;;;14.66;99.06;98635.00;5044643;28;20024;-67
2021/08/29 06:43:50;;;;;;;36.03;16.27;;;;;;;14.67;99.39;98631.44;5044527;28;20052;-67
2021/08/29 06:46:16;;;;;;;37.58;16.48;;;;;;;14.72;99.02;98627.69;5044479;28;20204;-67
2021/08/29 06:48:41;;;;;;;32.78;15.45;;;;;;;14.73;99.66;98636.50;5044175;28;20088;-67
2021/08/29 06:51:06;;;;;;;33.20;15.93;;;;;;;14.74;99.86;98630.28;5044251;28;20021;-67
2021/08/29 06:53:32;;;;;;;29.20;13.95;;;;;;;14.78;99.62;98634.59;5044254;28;20087;-67
2021/08/29 06:55:57;;;;;;;30.35;14.25;;;;;;;14.78;99.67;98640.72;5044212;28;20045;-67
2021/08/29 06:58:23;;;;;;;29.63;14.68;;;;;;;14.81;99.87;98639.78;5044251;28;20021;-67
2021/08/29 07:00:48;;;;;;;29.55;14.00;;;;;;;14.83;99.88;98643.22;5043052;28;20040;-67
2021/08/29 07:03:14;;;;;;;32.78;13.73;;;;;;;14.89;99.91;98645.66;5038635;28;20253;-67
2021/08/29 07:05:39;;;;;;;29.73;13.30;;;;;;;14.97;99.81;98648.88;5044200;28;20013;-67
2021/08/29 07:08:05;;;;;;;24.48;11.85;;;;;;;15.10;99.82;98639.56;5043930;28;20320;-67
2021/08/29 07:10:30;;;;;;;28.65;12.73;;;;;;;15.33;98.54;98644.84;5043849;28;20033;-67
2021/08/29 07:12:56;;;;;;;22.10;11.90;;;;;;;15.28;97.43;98652.09;5044074;28;20308;-67
2021/08/29 07:15:21;;;;;;;26.23;10.73;;;;;;;15.46;97.20;98648.81;5043549;28;20025;-65
2021/08/29 07:17:46;;;;;;;23.60;10.13;;;;;;;15.55;97.03;98645.81;5043961;28;20025;-66
2021/08/29 07:20:12;;;;;;;21.33;10.57;;;;;;;15.71;96.18;98646.06;5042319;28;20232;-66
2021/08/29 07:22:38;;;;;;;19.42;9.98;;;;;;;15.64;94.90;98649.88;5040290;28;20021;-66
2021/08/29 07:25:04;;;;;;;21.33;10.55;;;;;;;15.54;94.38;98654.69;5043708;28;20020;-66
2021/08/29 07:27:29;;;;;;;19.58;9.00;;;;;;;15.43;95.60;98651.56;5043753;28;20280;-66
2021/08/29 07:29:55;;;;;;;20.17;9.50;;;;;;;15.69;94.74;98643.47;5043349;28;20021;-66
2021/08/29 07:32:20;;;;;;;25.50;9.73;;;;;;;15.71;95.36;98646.94;5043511;28;20025;-66
2021/08/29 07:34:46;;;;;;;29.67;9.30;;;;;;;15.69;95.18;98648.75;5043399;28;20045;-66
2021/08/29 07:37:11;;;;;;;21.27;9.88;;;;;;;15.67;94.14;98655.94;5043619;28;20025;-67
2021/08/29 07:39:37;;;;;;;28.30;9.75;;;;;;;15.73;94.51;98645.09;5043450;28;20017;-66
2021/08/29 07:42:02;;;;;;;24.27;10.20;;;;;;;15.61;94.25;98656.19;5041482;28;20316;-66
2021/08/29 07:44:28;;;;;;;20.58;9.18;;;;;;;15.49;94.38;98646.03;5043624;28;20025;-66
2021/08/29 07:46:53;;;;;;;17.40;9.30;;;;;;;15.42;94.35;98649.84;5043598;28;20041;-66
2021/08/29 07:49:19;;;;;;;22.35;9.40;;;;;;;15.40;94.82;98651.69;5043390;28;20105;-66
2021/08/29 07:51:44;;;;;;;19.85;8.85;;;;;;;15.34;94.60;98657.19;5043532;28;20028;-66
2021/08/29 07:54:09;;;;;;;19.02;10.05;;;;;;;15.22;95.10;98652.34;5025433;28;20288;-66
2021/08/29 07:56:35;;;;;;;20.75;9.77;;;;;;;15.25;95.19;98646.06;5043003;28;20045;-66
2021/08/29 07:59:00;;;;;;;17.38;9.30;;;;;;;15.23;96.05;98654.94;5043152;28;20036;-66
2021/08/29 08:01:26;;;;;;;19.95;10.43;;;;;;;15.36;95.97;98650.06;5043191;28;20017;-66
2021/08/29 08:03:51;;;;;;;23.25;10.68;;;;;;;15.47;95.54;98650.53;5042754;28;20013;-66
2021/08/29 08:06:17;;;;;;;21.25;10.82;;;;;;;15.55;96.11;98651.09;5043098;28;20021;-66
2021/08/29 08:08:42;;;;;;;18.92;9.75;;;;;;;15.59;95.84;98652.72;5042553;28;20024;-66
2021/08/29 08:11:07;;;;;;;20.60;9.82;;;;;;;15.72;95.08;98658.41;5042874;28;20064;-66
2021/08/29 08:13:33;;;;;;;22.40;9.50;;;;;;;15.70;93.53;98654.94;5042829;28;20089;-66
2021/08/29 08:15:59;;;;;;;15.55;8.38;;;;;;;15.89;93.23;98651.50;5042760;28;20079;-66
2021/08/29 08:18:25;;;;;;;23.75;9.85;;;;;;;15.72;93.37;98653.09;5042855;28;20017;-66
2021/08/29 08:20:51;;;;;;;15.93;8.23;;;;;;;15.66;93.78;98659.50;5042392;28;20031;-66
2021/08/29 08:23:17;;;;;;;17.02;8.82;;;;;;;15.89;93.31;98651.50;5042515;28;20029;-66
2021/08/29 08:25:42;;;;;;;17.60;8.65;;;;;;;15.74;92.69;98652.13;5042769;28;20018;-66
2021/08/29 08:28:08;;;;;;;18.58;9.20;;;;;;;15.71;92.50;98652.22;5043060;28;20028;-66
2021/08/29 08:30:33;;;;;;;20.65;8.95;;;;;;;15.59;92.76;98651.84;5042535;28;20028;-66
2021/08/29 08:32:59;;;;;;;20.17;9.20;;;;;;;15.60;93.28;98657.06;5041358;28;20021;-66
2021/08/29 08:35:24;;;;;;;14.68;7.93;;;;;;;15.55;92.82;98661.72;5043508;28;20244;-66
2021/08/29 08:37:49;;;;;;;17.88;8.48;;;;;;;15.66;92.68;98659.50;5043504;28;20021;-66
2021/08/29 08:40:15;;;;;;;16.52;8.20;;;;;;;15.71;93.20;98656.66;5043529;28;20025;-68
2021/08/29 08:42:41;;;;;;;17.83;9.38;;;;;;;15.79;93.09;98660.75;5043134;28;20323;-67
2021/08/29 08:45:08;;;;;;;17.90;8.43;;;;;;;15.66;92.71;98662.16;5043559;28;20080;-67
2021/08/29 08:47:36;;;;;;;14.25;8.25;;;;;;;15.77;91.98;98665.25;5043353;28;20247;-68
2021/08/29 08:50:02;;;;;;;15.18;8.02;;;;;;;15.90;92.94;98669.16;5042451;28;20216;-68
2021/08/29 08:52:29;;;;;;;19.77;8.45;;;;;;;15.89;92.49;98669.22;5043384;28;20083;-68
2021/08/29 08:54:59;;;;;;;15.07;8.00;;;;;;;15.81;91.89;98658.91;5043356;28;20065;-68
2021/08/29 08:57:25;;;;;;;18.27;8.45;;;;;;;15.78;91.06;98659.03;5044095;28;20240;-68
2021/08/29 08:59:51;;;;;;;15.65;7.60;;;;;;;15.86;90.55;98662.25;5043177;28;20028;-67
2021/08/29 09:02:21;;;;;;;17.80;8.85;;;;;;;15.99;89.60;98652.88;5043217;28;20298;-68
2021/08/29 09:04:47;;;;;;;20.27;8.15;;;;;;;15.93;89.85;98662.84;5043266;28;20026;-68
2021/08/29 09:07:13;;;;;;;17.08;8.93;;;;;;;16.01;90.33;98661.63;5043287;28;20071;-69
2021/08/29 09:09:38;;;;;;;12.35;7.35;;;;;;;16.03;89.57;98659.78;5043222;28;20021;-68
2021/08/29 09:12:05;;;;;;;15.27;7.53;;;;;;;15.81;89.84;98664.22;5043073;28;20026;-68
2021/08/29 09:14:38;;;;;;;14.20;7.80;;;;;;;15.76;88.38;98671.47;5043090;28;20193;-68
2021/08/29 09:17:30;;;;;;;15.77;8.05;;;;;;;15.81;89.01;98673.94;5014966;28;20031;-68
2021/08/29 09:20:23;;;;;;;15.90;8.02;;;;;;;15.60;88.26;98669.50;5041993;28;20017;-67
2021/08/29 09:22:54;;;;;;;14.95;7.20;;;;;;;15.62;87.51;98671.16;5006307;28;20152;-67
2021/08/29 09:25:23;;;;;;;14.88;7.50;;;;;;;15.67;89.08;98674.50;5043197;28;20022;-67
2021/08/29 09:27:51;;;;;;;14.20;7.72;;;;;;;15.69;88.14;98675.28;5046947;28;20030;-67
2021/08/29 09:30:18;;;;;;;17.05;7.70;;;;;;;15.83;88.50;98673.00;5046691;28;20060;-67
2021/08/29 09:32:47;;;;;;;16.48;8.32;;;;;;;15.93;87.86;98669.03;5046006;28;20021;-67
2021/08/29 09:35:12;;;;;;;12.90;7.43;;;;;;;16.16;86.74;98676.94;5045680;28;20017;-67
2021/08/29 09:37:38;;;;;;;18.50;8.48;;;;;;;16.35;88.55;98675.25;5046795;28;20023;-67
2021/08/29 09:40:19;;;;;;;15.15;7.65;;;;;;;16.51;87.83;98665.72;5046775;28;20082;-67
2021/08/29 09:42:47;;;;;;;16.58;7.10;;;;;;;16.69;87.17;98672.06;5046231;28;20018;-67
2021/08/29 09:45:19;;;;;;;15.45;7.50;;;;;;;16.68;88.51;98676.50;5046676;28;20355;-67
2021/08/29 09:47:45;;;;;;;15.65;7.93;;;;;;;16.53;89.30;98674.50;5046463;28;20049;-67
2021/08/29 09:50:13;;;;;;;15.10;7.82;;;;;;;16.38;88.67;98672.47;5046551;28;20049;-68
2021/08/29 09:52:39;;;;;;;16.08;7.90;;;;;;;16.20;88.96;98673.22;5046287;28;20219;-68
2021/08/29 09:55:05;;;;;;;14.15;7.72;;;;;;;16.13;89.21;98671.75;5046615;28;20022;-68
2021/08/29 09:57:32;;;;;;;14.18;7.70;;;;;;;16.17;88.67;98668.03;5046332;28;20025;-68
2021/08/29 09:59:57;;;;;;;14.98;8.52;;;;;;;16.08;88.87;98672.84;5046303;28;20347;-68
2021/08/29 10:02:24;;;;;;;13.07;7.68;;;;;;;15.90;88.95;98663.84;5046272;28;20013;-68
2021/08/29 10:05:16;;;;;;;16.58;8.25;;;;;;;15.88;89.47;98676.31;5046096;28;20017;-69
2021/08/29 10:08:09;;;;;;;19.50;8.05;;;;;;;16.08;88.70;98662.25;5044975;28;20048;-68
2021/08/29 10:10:39;;;;;;;17.00;8.55;;;;;;;15.98;88.89;98669.69;5033998;28;20083;-68
2021/08/29 10:13:06;;;;;;;16.48;8.95;;;;;;;16.06;89.95;98672.94;5046157;28;20028;-68
2021/08/29 10:15:35;;;;;;;16.70;9.02;;;;;;;16.08;89.92;98672.84;5045486;28;20059;-68
2021/08/29 10:18:01;;;;;;;14.52;7.43;;;;;;;16.16;90.23;98665.44;5045719;28;20045;-68
2021/08/29 10:20:30;;;;;;;16.38;8.65;;;;;;;16.17;90.93;98668.03;5045981;28;20029;-68
2021/08/29 10:22:57;;;;;;;14.95;7.78;;;;;;;16.10;89.91;98671.88;5045732;28;20027;-68
2021/08/29 10:25:23;;;;;;;13.85;6.88;;;;;;;16.07;89.57;98669.34;5042002;28;20024;-68
2021/08/29 10:27:55;;;;;;;15.82;7.60;;;;;;;16.12;89.78;98664.72;5028130;28;20041;-68
2021/08/29 10:30:20;;;;;;;13.90;7.75;;;;;;;16.03;90.28;98669.50;5045889;28;20017;-68
2021/08/29 10:32:49;;;;;;;14.73;7.47;;;;;;;16.04;90.18;98669.44;5045766;28;20346;-68
2021/08/29 10:35:15;;;;;;;15.88;7.28;;;;;;;16.11;90.64;98672.75;5045389;28;20017;-68
2021/08/29 10:37:46;;;;;;;15.93;8.65;;;;;;;16.18;90.58;98664.47;5026183;28;20029;-68
2021/08/29 10:40:14;;;;;;;13.57;7.50;;;;;;;16.24;89.53;98664.22;5036166;28;20017;-68
2021/08/29 10:42:41;;;;;;;15.43;8.48;;;;;;;16.21;89.45;98664.34;5045404;28;20215;-68
2021/08/29 10:45:08;;;;;;;15.40;7.95;;;;;;;16.28;89.44;98667.59;5045507;28;20040;-68
2021/08/29 10:47:36;;;;;;;15.95;7.97;;;;;;;16.36;88.20;98658.38;5045531;28;20204;-68
2021/08/29 10:50:04;;;;;;;13.73;7.78;;;;;;;16.48;87.71;98657.00;5045320;28;20068;-68
2021/08/29 10:52:30;;;;;;;14.73;7.13;;;;;;;16.50;88.60;98655.16;5027529;28;20032;-68
2021/08/29 10:55:01;;;;;;;14.25;7.63;;;;;;;16.39;89.28;98658.25;5045273;28;20029;-68
2021/08/29 10:57:33;;;;;;;18.73;9.52;;;;;;;16.12;88.86;98651.44;5045369;28;20017;-68
2021/08/29 11:00:03;;;;;;;21.15;10.85;;;;;;;16.05;90.27;98657.94;5037312;28;20048;-68
2021/08/29 11:02:45;;;;;;;18.52;10.60;;;;;;;15.93;91.15;98650.44;5045167;28;20025;-68
2021/08/29 11:05:14;;;;;;;19.15;10.20;;;;;;;15.80;91.52;98656.31;5045082;28;20068;-68
2021/08/29 11:07:40;;;;;;;21.70;10.90;;;;;;;15.70;91.22;98658.47;5045033;28;20040;-68
2021/08/29 11:10:08;;;;;;;24.00;11.35;;;;;;;15.64;91.80;98660.50;5044921;28;20030;-68
2021/08/29 11:12:35;;;;;;;25.17;11.23;;;;;;;15.59;91.79;98652.72;5044980;28;20244;-68
2021/08/29 11:15:03;;;;;;;22.88;11.32;;;;;;;15.53;91.75;98657.41;5044849;28;20088;-68
2021/08/29 11:17:34;;;;;;;21.23;11.00;;;;;;;15.46;91.05;98662.06;5043884;28;20092;-68